EDVK

Kassel-Calden Airport

Kassel, Germany
METAR EDVK 161950Z 27010KT 9999 -RA FEW007 SCT018 OVC035 02/01 Q1013
Observed Flight Rules
Dec-16 @ 19:50 UTC (5 hours ago) Visual Flight Rules
Wind Visibility Clouds Conditions
270° at 10 knots 10,000+ meters
  • Few at 700' AGL
  • Scattered at 1,800' AGL
  • Overcast at 3,500' AGL
  • Light Rain
Temperatures Readings
Current 2°C / 36°F
Dewpoint 1°C / 34°F
Humidity 93%
Altimeter 29.91" Hg
Pressure 1013 hPa
Elevation 285
METAR EDVK 161950Z 27010KT 9999 -RA FEW007 SCT018 OVC035 02/01 Q1013
Observed Flight Rules
Dec-16 @ 19:50 UTC
(5 hours ago)
VFR
Wind Visibility
270° at 10 knots 10,000+ meters
Clouds
  • Few at 700' AGL
  • Scattered at 1,800' AGL
  • Overcast at 3,500' AGL
Conditions
  • Light Rain
Temperature Dewpoint
2°C / 36°F 1°C / 34°F
Humidity Altimeter Pressure
93% 29.91" Hg 1013 hPa